sensor_id;sensor_type;location;lat;lon;timestamp;P1;durP1;ratioP1;P2;durP2;ratioP2
4074;SDS011;2052;53.522;9.806;2023-03-14T00:00:32;9.10;;;4.93;;
4074;SDS011;2052;53.522;9.806;2023-03-14T00:02:59;5.80;;;4.13;;
4074;SDS011;2052;53.522;9.806;2023-03-14T00:05:27;6.50;;;4.50;;
4074;SDS011;2052;53.522;9.806;2023-03-14T00:07:54;9.90;;;3.77;;
4074;SDS011;2052;53.522;9.806;2023-03-14T00:10:20;21.40;;;4.50;;
4074;SDS011;2052;53.522;9.806;2023-03-14T00:12:47;9.90;;;4.17;;
4074;SDS011;2052;53.522;9.806;2023-03-14T00:15:13;6.50;;;4.13;;
4074;SDS011;2052;53.522;9.806;2023-03-14T00:17:40;10.77;;;4.47;;
4074;SDS011;2052;53.522;9.806;2023-03-14T00:20:09;12.23;;;4.53;;
4074;SDS011;2052;53.522;9.806;2023-03-14T00:22:38;9.53;;;4.10;;
4074;SDS011;2052;53.522;9.806;2023-03-14T00:25:06;7.63;;;4.60;;
4074;SDS011;2052;53.522;9.806;2023-03-14T00:27:35;10.80;;;3.97;;
4074;SDS011;2052;53.522;9.806;2023-03-14T00:30:02;7.33;;;3.30;;
4074;SDS011;2052;53.522;9.806;2023-03-14T00:32:30;10.67;;;3.90;;
4074;SDS011;2052;53.522;9.806;2023-03-14T00:34:56;6.20;;;3.50;;
4074;SDS011;2052;53.522;9.806;2023-03-14T00:37:23;5.53;;;3.43;;
4074;SDS011;2052;53.522;9.806;2023-03-14T00:39:52;9.47;;;3.70;;
4074;SDS011;2052;53.522;9.806;2023-03-14T00:42:18;7.87;;;3.67;;
4074;SDS011;2052;53.522;9.806;2023-03-14T00:44:46;9.13;;;3.77;;
4074;SDS011;2052;53.522;9.806;2023-03-14T00:47:13;8.07;;;3.97;;
4074;SDS011;2052;53.522;9.806;2023-03-14T00:49:40;7.40;;;4.03;;
4074;SDS011;2052;53.522;9.806;2023-03-14T00:52:08;4.97;;;3.23;;
4074;SDS011;2052;53.522;9.806;2023-03-14T00:54:35;7.47;;;3.60;;
4074;SDS011;2052;53.522;9.806;2023-03-14T00:57:02;10.53;;;4.30;;
4074;SDS011;2052;53.522;9.806;2023-03-14T00:59:29;9.33;;;3.60;;
4074;SDS011;2052;53.522;9.806;2023-03-14T01:01:56;17.60;;;5.53;;
4074;SDS011;2052;53.522;9.806;2023-03-14T01:04:22;8.00;;;3.77;;
4074;SDS011;2052;53.522;9.806;2023-03-14T01:06:49;8.60;;;4.60;;
4074;SDS011;2052;53.522;9.806;2023-03-14T01:09:16;11.47;;;5.30;;
4074;SDS011;2052;53.522;9.806;2023-03-14T01:11:44;11.57;;;4.40;;
4074;SDS011;2052;53.522;9.806;2023-03-14T01:14:13;10.80;;;4.60;;
4074;SDS011;2052;53.522;9.806;2023-03-14T01:16:39;13.77;;;3.87;;
4074;SDS011;2052;53.522;9.806;2023-03-14T01:19:06;11.20;;;3.90;;
4074;SDS011;2052;53.522;9.806;2023-03-14T01:21:33;10.67;;;4.00;;
4074;SDS011;2052;53.522;9.806;2023-03-14T01:24:02;6.70;;;4.13;;
4074;SDS011;2052;53.522;9.806;2023-03-14T01:26:31;7.87;;;4.23;;
4074;SDS011;2052;53.522;9.806;2023-03-14T01:28:58;6.63;;;3.70;;
4074;SDS011;2052;53.522;9.806;2023-03-14T01:31:27;9.30;;;3.90;;
4074;SDS011;2052;53.522;9.806;2023-03-14T01:33:53;10.87;;;4.07;;
4074;SDS011;2052;53.522;9.806;2023-03-14T01:36:20;8.23;;;4.27;;
4074;SDS011;2052;53.522;9.806;2023-03-14T01:38:46;8.63;;;4.40;;
4074;SDS011;2052;53.522;9.806;2023-03-14T01:41:14;15.10;;;4.17;;
4074;SDS011;2052;53.522;9.806;2023-03-14T01:43:42;10.93;;;4.43;;
4074;SDS011;2052;53.522;9.806;2023-03-14T01:48:55;10.73;;;4.00;;
4074;SDS011;2052;53.522;9.806;2023-03-14T01:51:25;7.60;;;4.13;;
4074;SDS011;2052;53.522;9.806;2023-03-14T01:53:55;10.80;;;3.73;;
4074;SDS011;2052;53.522;9.806;2023-03-14T01:56:26;7.73;;;5.20;;
4074;SDS011;2052;53.522;9.806;2023-03-14T01:58:53;7.70;;;4.17;;
4074;SDS011;2052;53.522;9.806;2023-03-14T02:01:21;6.37;;;4.07;;
4074;SDS011;2052;53.522;9.806;2023-03-14T02:03:50;7.43;;;4.60;;
4074;SDS011;2052;53.522;9.806;2023-03-14T02:06:21;8.13;;;4.43;;
4074;SDS011;2052;53.522;9.806;2023-03-14T02:08:49;9.90;;;5.07;;
4074;SDS011;2052;53.522;9.806;2023-03-14T02:11:16;9.70;;;4.40;;
4074;SDS011;2052;53.522;9.806;2023-03-14T02:13:43;11.00;;;5.00;;
4074;SDS011;2052;53.522;9.806;2023-03-14T02:16:10;8.00;;;4.30;;
4074;SDS011;2052;53.522;9.806;2023-03-14T02:18:37;8.87;;;4.27;;
4074;SDS011;2052;53.522;9.806;2023-03-14T02:21:06;14.70;;;4.37;;
4074;SDS011;2052;53.522;9.806;2023-03-14T02:23:41;9.40;;;4.20;;
4074;SDS011;2052;53.522;9.806;2023-03-14T02:26:13;13.20;;;4.47;;
4074;SDS011;2052;53.522;9.806;2023-03-14T02:28:43;14.90;;;4.93;;
4074;SDS011;2052;53.522;9.806;2023-03-14T02:31:09;12.43;;;4.70;;
4074;SDS011;2052;53.522;9.806;2023-03-14T02:33:37;8.73;;;4.73;;
4074;SDS011;2052;53.522;9.806;2023-03-14T02:36:05;8.60;;;4.60;;
4074;SDS011;2052;53.522;9.806;2023-03-14T02:38:35;8.63;;;4.33;;
4074;SDS011;2052;53.522;9.806;2023-03-14T02:41:04;10.17;;;4.40;;
4074;SDS011;2052;53.522;9.806;2023-03-14T02:43:31;8.63;;;4.47;;
4074;SDS011;2052;53.522;9.806;2023-03-14T02:45:59;12.93;;;4.57;;
4074;SDS011;2052;53.522;9.806;2023-03-14T02:48:27;13.00;;;5.30;;
4074;SDS011;2052;53.522;9.806;2023-03-14T02:50:57;14.17;;;4.63;;
4074;SDS011;2052;53.522;9.806;2023-03-14T02:53:26;12.00;;;4.10;;
4074;SDS011;2052;53.522;9.806;2023-03-14T02:55:54;10.97;;;5.13;;
4074;SDS011;2052;53.522;9.806;2023-03-14T02:58:21;8.70;;;3.80;;
4074;SDS011;2052;53.522;9.806;2023-03-14T03:00:48;17.40;;;5.70;;
4074;SDS011;2052;53.522;9.806;2023-03-14T03:03:16;10.20;;;4.40;;
4074;SDS011;2052;53.522;9.806;2023-03-14T03:05:42;12.87;;;4.20;;
4074;SDS011;2052;53.522;9.806;2023-03-14T03:08:09;10.20;;;4.93;;
4074;SDS011;2052;53.522;9.806;2023-03-14T03:10:36;9.40;;;5.20;;
4074;SDS011;2052;53.522;9.806;2023-03-14T03:13:03;10.03;;;4.90;;
4074;SDS011;2052;53.522;9.806;2023-03-14T03:15:29;6.53;;;4.93;;
4074;SDS011;2052;53.522;9.806;2023-03-14T03:18:20;8.40;;;4.60;;
4074;SDS011;2052;53.522;9.806;2023-03-14T03:20:46;8.83;;;4.30;;
4074;SDS011;2052;53.522;9.806;2023-03-14T03:23:13;7.17;;;4.57;;
4074;SDS011;2052;53.522;9.806;2023-03-14T03:25:40;15.50;;;4.27;;
4074;SDS011;2052;53.522;9.806;2023-03-14T03:28:06;7.03;;;3.50;;
4074;SDS011;2052;53.522;9.806;2023-03-14T03:30:33;9.07;;;4.27;;
4074;SDS011;2052;53.522;9.806;2023-03-14T03:33:03;15.33;;;5.20;;
4074;SDS011;2052;53.522;9.806;2023-03-14T03:35:31;7.60;;;4.03;;
4074;SDS011;2052;53.522;9.806;2023-03-14T03:37:57;9.30;;;4.17;;
4074;SDS011;2052;53.522;9.806;2023-03-14T03:40:24;13.60;;;4.27;;
4074;SDS011;2052;53.522;9.806;2023-03-14T03:42:51;9.43;;;3.40;;
4074;SDS011;2052;53.522;9.806;2023-03-14T03:45:17;14.87;;;4.50;;
4074;SDS011;2052;53.522;9.806;2023-03-14T03:47:44;7.70;;;4.07;;
4074;SDS011;2052;53.522;9.806;2023-03-14T03:50:10;6.43;;;4.30;;
4074;SDS011;2052;53.522;9.806;2023-03-14T03:52:38;8.20;;;4.07;;
4074;SDS011;2052;53.522;9.806;2023-03-14T03:55:05;6.30;;;4.47;;
4074;SDS011;2052;53.522;9.806;2023-03-14T03:57:32;8.60;;;4.17;;
4074;SDS011;2052;53.522;9.806;2023-03-14T03:59:58;10.20;;;4.70;;
4074;SDS011;2052;53.522;9.806;2023-03-14T04:02:25;8.23;;;3.87;;
4074;SDS011;2052;53.522;9.806;2023-03-14T04:04:51;12.83;;;4.33;;
4074;SDS011;2052;53.522;9.806;2023-03-14T04:07:18;6.47;;;4.43;;
4074;SDS011;2052;53.522;9.806;2023-03-14T04:09:46;9.30;;;4.23;;
4074;SDS011;2052;53.522;9.806;2023-03-14T04:12:12;7.97;;;4.03;;
4074;SDS011;2052;53.522;9.806;2023-03-14T04:14:39;10.07;;;5.03;;
4074;SDS011;2052;53.522;9.806;2023-03-14T04:17:06;5.60;;;4.03;;
4074;SDS011;2052;53.522;9.806;2023-03-14T04:19:33;9.53;;;4.53;;
4074;SDS011;2052;53.522;9.806;2023-03-14T04:21:59;7.63;;;4.03;;
4074;SDS011;2052;53.522;9.806;2023-03-14T04:24:26;9.00;;;4.33;;
4074;SDS011;2052;53.522;9.806;2023-03-14T04:26:54;7.27;;;4.90;;
4074;SDS011;2052;53.522;9.806;2023-03-14T04:29:20;10.80;;;5.23;;
4074;SDS011;2052;53.522;9.806;2023-03-14T04:31:47;7.40;;;4.50;;
4074;SDS011;2052;53.522;9.806;2023-03-14T04:34:14;8.40;;;5.80;;
4074;SDS011;2052;53.522;9.806;2023-03-14T04:36:40;9.33;;;6.30;;
4074;SDS011;2052;53.522;9.806;2023-03-14T04:39:07;16.60;;;5.57;;
4074;SDS011;2052;53.522;9.806;2023-03-14T04:41:34;14.37;;;5.53;;
4074;SDS011;2052;53.522;9.806;2023-03-14T04:44:01;11.70;;;5.30;;
4074;SDS011;2052;53.522;9.806;2023-03-14T04:46:28;4.90;;;4.10;;
4074;SDS011;2052;53.522;9.806;2023-03-14T04:48:55;9.20;;;4.90;;
4074;SDS011;2052;53.522;9.806;2023-03-14T04:51:22;8.30;;;5.10;;
4074;SDS011;2052;53.522;9.806;2023-03-14T04:53:52;6.10;;;3.30;;
4074;SDS011;2052;53.522;9.806;2023-03-14T04:56:18;4.07;;;3.40;;
4074;SDS011;2052;53.522;9.806;2023-03-14T04:58:45;5.23;;;3.10;;
4074;SDS011;2052;53.522;9.806;2023-03-14T05:01:13;5.83;;;3.20;;
4074;SDS011;2052;53.522;9.806;2023-03-14T05:03:40;5.20;;;3.93;;
4074;SDS011;2052;53.522;9.806;2023-03-14T05:06:06;6.80;;;3.80;;
4074;SDS011;2052;53.522;9.806;2023-03-14T05:08:33;5.20;;;2.97;;
4074;SDS011;2052;53.522;9.806;2023-03-14T05:11:00;7.73;;;4.33;;
4074;SDS011;2052;53.522;9.806;2023-03-14T05:13:28;13.63;;;3.60;;
4074;SDS011;2052;53.522;9.806;2023-03-14T05:16:02;10.80;;;4.20;;
4074;SDS011;2052;53.522;9.806;2023-03-14T05:18:30;9.47;;;4.50;;
4074;SDS011;2052;53.522;9.806;2023-03-14T05:20:57;9.13;;;4.50;;
4074;SDS011;2052;53.522;9.806;2023-03-14T05:23:23;7.53;;;4.37;;
4074;SDS011;2052;53.522;9.806;2023-03-14T05:25:50;10.40;;;4.80;;
4074;SDS011;2052;53.522;9.806;2023-03-14T05:28:17;9.03;;;5.10;;
4074;SDS011;2052;53.522;9.806;2023-03-14T05:30:43;9.77;;;4.83;;
4074;SDS011;2052;53.522;9.806;2023-03-14T05:33:10;6.40;;;4.33;;
4074;SDS011;2052;53.522;9.806;2023-03-14T05:35:37;11.90;;;6.43;;
4074;SDS011;2052;53.522;9.806;2023-03-14T05:38:04;10.17;;;5.40;;
4074;SDS011;2052;53.522;9.806;2023-03-14T05:40:31;15.00;;;6.23;;
4074;SDS011;2052;53.522;9.806;2023-03-14T05:42:57;13.23;;;5.23;;
4074;SDS011;2052;53.522;9.806;2023-03-14T05:45:24;9.23;;;5.30;;
4074;SDS011;2052;53.522;9.806;2023-03-14T05:47:50;9.80;;;5.80;;
4074;SDS011;2052;53.522;9.806;2023-03-14T05:50:17;10.20;;;5.90;;
4074;SDS011;2052;53.522;9.806;2023-03-14T05:52:45;16.17;;;6.17;;
4074;SDS011;2052;53.522;9.806;2023-03-14T05:55:11;12.83;;;7.00;;
4074;SDS011;2052;53.522;9.806;2023-03-14T05:57:38;15.43;;;7.43;;
4074;SDS011;2052;53.522;9.806;2023-03-14T06:00:05;10.70;;;7.00;;
4074;SDS011;2052;53.522;9.806;2023-03-14T06:02:32;16.37;;;7.20;;
4074;SDS011;2052;53.522;9.806;2023-03-14T06:04:59;14.77;;;7.00;;
4074;SDS011;2052;53.522;9.806;2023-03-14T06:07:25;18.30;;;6.97;;
4074;SDS011;2052;53.522;9.806;2023-03-14T06:09:53;17.53;;;7.00;;
4074;SDS011;2052;53.522;9.806;2023-03-14T06:12:20;17.70;;;6.53;;
4074;SDS011;2052;53.522;9.806;2023-03-14T06:14:46;13.00;;;6.50;;
4074;SDS011;2052;53.522;9.806;2023-03-14T06:17:13;10.33;;;7.10;;
4074;SDS011;2052;53.522;9.806;2023-03-14T06:19:39;12.43;;;6.37;;
4074;SDS011;2052;53.522;9.806;2023-03-14T06:22:06;11.63;;;7.00;;
4074;SDS011;2052;53.522;9.806;2023-03-14T06:24:32;14.27;;;6.60;;
4074;SDS011;2052;53.522;9.806;2023-03-14T06:27:00;20.47;;;7.30;;
4074;SDS011;2052;53.522;9.806;2023-03-14T06:29:28;13.70;;;7.70;;
4074;SDS011;2052;53.522;9.806;2023-03-14T06:31:55;12.20;;;6.40;;
4074;SDS011;2052;53.522;9.806;2023-03-14T06:34:22;14.30;;;8.23;;
4074;SDS011;2052;53.522;9.806;2023-03-14T06:36:49;12.67;;;6.60;;
4074;SDS011;2052;53.522;9.806;2023-03-14T06:39:15;10.50;;;5.57;;
4074;SDS011;2052;53.522;9.806;2023-03-14T06:41:42;6.40;;;4.73;;
4074;SDS011;2052;53.522;9.806;2023-03-14T06:44:10;9.23;;;5.37;;
4074;SDS011;2052;53.522;9.806;2023-03-14T06:46:36;6.47;;;4.30;;
4074;SDS011;2052;53.522;9.806;2023-03-14T06:49:03;9.60;;;4.67;;
4074;SDS011;2052;53.522;9.806;2023-03-14T06:51:30;10.60;;;4.57;;
4074;SDS011;2052;53.522;9.806;2023-03-14T06:53:56;10.40;;;4.27;;
4074;SDS011;2052;53.522;9.806;2023-03-14T06:56:23;8.93;;;4.30;;
4074;SDS011;2052;53.522;9.806;2023-03-14T06:58:49;9.20;;;3.87;;
4074;SDS011;2052;53.522;9.806;2023-03-14T07:01:22;10.17;;;4.30;;
4074;SDS011;2052;53.522;9.806;2023-03-14T07:03:52;7.73;;;3.97;;
4074;SDS011;2052;53.522;9.806;2023-03-14T07:06:18;6.50;;;3.27;;
4074;SDS011;2052;53.522;9.806;2023-03-14T07:08:45;10.83;;;2.90;;
4074;SDS011;2052;53.522;9.806;2023-03-14T07:11:12;8.27;;;3.50;;
4074;SDS011;2052;53.522;9.806;2023-03-14T07:13:38;8.40;;;2.73;;
4074;SDS011;2052;53.522;9.806;2023-03-14T07:16:05;6.33;;;2.77;;
4074;SDS011;2052;53.522;9.806;2023-03-14T07:18:35;7.77;;;4.53;;
4074;SDS011;2052;53.522;9.806;2023-03-14T07:21:02;4.60;;;2.70;;
4074;SDS011;2052;53.522;9.806;2023-03-14T07:23:29;9.90;;;2.80;;
4074;SDS011;2052;53.522;9.806;2023-03-14T07:25:56;4.30;;;2.73;;
4074;SDS011;2052;53.522;9.806;2023-03-14T07:28:22;12.60;;;3.77;;
4074;SDS011;2052;53.522;9.806;2023-03-14T07:30:49;9.33;;;3.73;;
4074;SDS011;2052;53.522;9.806;2023-03-14T07:33:15;4.70;;;3.43;;
4074;SDS011;2052;53.522;9.806;2023-03-14T07:35:43;4.57;;;3.17;;
4074;SDS011;2052;53.522;9.806;2023-03-14T07:38:10;12.83;;;3.50;;
4074;SDS011;2052;53.522;9.806;2023-03-14T07:40:36;12.63;;;3.53;;
4074;SDS011;2052;53.522;9.806;2023-03-14T07:43:03;7.00;;;3.57;;
4074;SDS011;2052;53.522;9.806;2023-03-14T07:45:30;4.80;;;2.87;;
4074;SDS011;2052;53.522;9.806;2023-03-14T07:47:56;6.23;;;3.13;;
4074;SDS011;2052;53.522;9.806;2023-03-14T07:50:23;4.60;;;2.57;;
4074;SDS011;2052;53.522;9.806;2023-03-14T07:52:51;8.03;;;2.67;;
4074;SDS011;2052;53.522;9.806;2023-03-14T07:55:18;4.10;;;2.33;;
4074;SDS011;2052;53.522;9.806;2023-03-14T07:57:44;5.87;;;2.50;;
4074;SDS011;2052;53.522;9.806;2023-03-14T08:00:11;3.97;;;2.50;;
4074;SDS011;2052;53.522;9.806;2023-03-14T08:02:39;4.40;;;2.33;;
4074;SDS011;2052;53.522;9.806;2023-03-14T08:05:05;5.13;;;2.60;;
4074;SDS011;2052;53.522;9.806;2023-03-14T08:07:32;2.63;;;2.20;;
4074;SDS011;2052;53.522;9.806;2023-03-14T08:10:00;3.03;;;2.30;;
4074;SDS011;2052;53.522;9.806;2023-03-14T08:12:27;2.90;;;1.63;;
4074;SDS011;2052;53.522;9.806;2023-03-14T08:14:53;5.43;;;2.40;;
4074;SDS011;2052;53.522;9.806;2023-03-14T08:17:20;4.13;;;2.00;;
4074;SDS011;2052;53.522;9.806;2023-03-14T08:19:46;7.50;;;2.87;;
4074;SDS011;2052;53.522;9.806;2023-03-14T08:22:13;12.87;;;2.47;;
4074;SDS011;2052;53.522;9.806;2023-03-14T08:24:39;3.77;;;2.47;;
4074;SDS011;2052;53.522;9.806;2023-03-14T08:27:08;6.20;;;2.23;;
4074;SDS011;2052;53.522;9.806;2023-03-14T08:29:34;6.30;;;2.53;;
4074;SDS011;2052;53.522;9.806;2023-03-14T08:32:01;6.20;;;2.47;;
4074;SDS011;2052;53.522;9.806;2023-03-14T08:34:27;12.63;;;2.90;;
4074;SDS011;2052;53.522;9.806;2023-03-14T08:36:54;7.73;;;2.87;;
4074;SDS011;2052;53.522;9.806;2023-03-14T08:39:21;8.77;;;3.10;;
4074;SDS011;2052;53.522;9.806;2023-03-14T08:41:49;6.87;;;3.70;;
4074;SDS011;2052;53.522;9.806;2023-03-14T08:44:17;11.07;;;4.03;;
4074;SDS011;2052;53.522;9.806;2023-03-14T08:46:43;9.43;;;3.20;;
4074;SDS011;2052;53.522;9.806;2023-03-14T08:49:10;7.80;;;3.37;;
4074;SDS011;2052;53.522;9.806;2023-03-14T08:51:36;9.43;;;4.07;;
4074;SDS011;2052;53.522;9.806;2023-03-14T08:54:03;7.10;;;4.00;;
4074;SDS011;2052;53.522;9.806;2023-03-14T08:56:29;8.47;;;4.10;;
4074;SDS011;2052;53.522;9.806;2023-03-14T08:58:56;7.20;;;3.83;;
4074;SDS011;2052;53.522;9.806;2023-03-14T09:01:24;12.37;;;4.63;;
4074;SDS011;2052;53.522;9.806;2023-03-14T09:03:51;5.47;;;3.97;;
4074;SDS011;2052;53.522;9.806;2023-03-14T09:06:17;8.03;;;4.30;;
4074;SDS011;2052;53.522;9.806;2023-03-14T09:08:44;7.90;;;4.53;;
4074;SDS011;2052;53.522;9.806;2023-03-14T09:11:11;9.93;;;4.83;;
4074;SDS011;2052;53.522;9.806;2023-03-14T09:13:38;8.60;;;4.60;;
4074;SDS011;2052;53.522;9.806;2023-03-14T09:16:06;12.53;;;4.20;;
4074;SDS011;2052;53.522;9.806;2023-03-14T09:18:34;10.30;;;4.33;;
4074;SDS011;2052;53.522;9.806;2023-03-14T09:21:01;10.60;;;5.33;;
4074;SDS011;2052;53.522;9.806;2023-03-14T09:23:29;11.30;;;4.70;;
4074;SDS011;2052;53.522;9.806;2023-03-14T09:25:55;10.20;;;4.90;;
4074;SDS011;2052;53.522;9.806;2023-03-14T09:28:22;10.80;;;4.53;;
4074;SDS011;2052;53.522;9.806;2023-03-14T09:30:48;10.73;;;5.07;;
4074;SDS011;2052;53.522;9.806;2023-03-14T09:33:15;8.90;;;4.40;;
4074;SDS011;2052;53.522;9.806;2023-03-14T09:35:43;11.53;;;4.10;;
4074;SDS011;2052;53.522;9.806;2023-03-14T09:38:10;7.23;;;4.87;;
4074;SDS011;2052;53.522;9.806;2023-03-14T09:40:37;12.33;;;5.57;;
4074;SDS011;2052;53.522;9.806;2023-03-14T09:43:04;9.43;;;4.23;;
4074;SDS011;2052;53.522;9.806;2023-03-14T09:45:31;9.30;;;3.83;;
4074;SDS011;2052;53.522;9.806;2023-03-14T09:48:00;3.43;;;1.37;;
4074;SDS011;2052;53.522;9.806;2023-03-14T09:50:30;3.30;;;1.13;;
4074;SDS011;2052;53.522;9.806;2023-03-14T09:53:01;3.53;;;1.60;;
4074;SDS011;2052;53.522;9.806;2023-03-14T09:55:29;2.50;;;1.60;;
4074;SDS011;2052;53.522;9.806;2023-03-14T09:57:58;3.43;;;2.20;;
4074;SDS011;2052;53.522;9.806;2023-03-14T10:00:27;2.60;;;2.37;;
4074;SDS011;2052;53.522;9.806;2023-03-14T10:02:58;4.77;;;3.83;;
4074;SDS011;2052;53.522;9.806;2023-03-14T10:05:27;6.20;;;4.33;;
4074;SDS011;2052;53.522;9.806;2023-03-14T10:07:54;2.60;;;2.13;;
4074;SDS011;2052;53.522;9.806;2023-03-14T10:10:23;5.23;;;2.30;;
4074;SDS011;2052;53.522;9.806;2023-03-14T10:12:54;3.03;;;1.60;;
4074;SDS011;2052;53.522;9.806;2023-03-14T10:15:24;2.97;;;1.40;;
4074;SDS011;2052;53.522;9.806;2023-03-14T10:17:52;6.67;;;1.80;;
4074;SDS011;2052;53.522;9.806;2023-03-14T10:20:29;3.93;;;2.00;;
4074;SDS011;2052;53.522;9.806;2023-03-14T10:23:01;1.80;;;1.40;;
4074;SDS011;2052;53.522;9.806;2023-03-14T10:25:31;1.77;;;1.17;;
4074;SDS011;2052;53.522;9.806;2023-03-14T10:28:01;2.10;;;1.50;;
4074;SDS011;2052;53.522;9.806;2023-03-14T10:30:33;2.30;;;1.20;;
4074;SDS011;2052;53.522;9.806;2023-03-14T10:33:09;7.20;;;1.60;;
4074;SDS011;2052;53.522;9.806;2023-03-14T10:35:37;2.90;;;1.40;;
4074;SDS011;2052;53.522;9.806;2023-03-14T10:38:04;1.40;;;1.20;;
4074;SDS011;2052;53.522;9.806;2023-03-14T10:40:32;2.27;;;1.17;;
4074;SDS011;2052;53.522;9.806;2023-03-14T10:43:00;1.47;;;1.13;;
4074;SDS011;2052;53.522;9.806;2023-03-14T10:45:31;8.23;;;1.20;;
4074;SDS011;2052;53.522;9.806;2023-03-14T10:47:59;1.33;;;1.23;;
4074;SDS011;2052;53.522;9.806;2023-03-14T10:50:37;1.60;;;1.13;;
4074;SDS011;2052;53.522;9.806;2023-03-14T10:53:03;1.03;;;0.93;;
4074;SDS011;2052;53.522;9.806;2023-03-14T10:55:40;1.23;;;1.13;;
4074;SDS011;2052;53.522;9.806;2023-03-14T10:58:17;0.90;;;0.90;;
4074;SDS011;2052;53.522;9.806;2023-03-14T11:00:45;1.73;;;1.00;;
4074;SDS011;2052;53.522;9.806;2023-03-14T11:03:13;0.90;;;0.90;;
4074;SDS011;2052;53.522;9.806;2023-03-14T11:05:42;4.10;;;0.97;;
4074;SDS011;2052;53.522;9.806;2023-03-14T11:11:13;2.27;;;1.40;;
4074;SDS011;2052;53.522;9.806;2023-03-14T11:13:44;2.63;;;1.33;;
4074;SDS011;2052;53.522;9.806;2023-03-14T11:16:19;1.53;;;1.10;;
4074;SDS011;2052;53.522;9.806;2023-03-14T11:19:20;0.90;;;0.90;;
4074;SDS011;2052;53.522;9.806;2023-03-14T11:21:56;2.80;;;1.20;;
4074;SDS011;2052;53.522;9.806;2023-03-14T11:24:28;1.93;;;1.27;;
4074;SDS011;2052;53.522;9.806;2023-03-14T11:27:06;2.73;;;1.10;;
4074;SDS011;2052;53.522;9.806;2023-03-14T11:29:38;2.30;;;1.20;;
4074;SDS011;2052;53.522;9.806;2023-03-14T11:32:10;1.77;;;1.30;;
4074;SDS011;2052;53.522;9.806;2023-03-14T11:34:39;2.93;;;1.57;;
4074;SDS011;2052;53.522;9.806;2023-03-14T11:37:12;6.13;;;1.50;;
4074;SDS011;2052;53.522;9.806;2023-03-14T11:39:41;2.10;;;1.20;;
4074;SDS011;2052;53.522;9.806;2023-03-14T11:42:15;2.30;;;1.20;;
4074;SDS011;2052;53.522;9.806;2023-03-14T11:44:43;3.27;;;1.43;;
4074;SDS011;2052;53.522;9.806;2023-03-14T11:47:13;6.67;;;2.60;;
4074;SDS011;2052;53.522;9.806;2023-03-14T11:49:43;9.20;;;2.00;;
4074;SDS011;2052;53.522;9.806;2023-03-14T11:52:13;5.77;;;2.63;;
4074;SDS011;2052;53.522;9.806;2023-03-14T11:54:42;12.57;;;1.70;;
4074;SDS011;2052;53.522;9.806;2023-03-14T11:57:17;7.83;;;1.73;;
4074;SDS011;2052;53.522;9.806;2023-03-14T11:59:48;6.23;;;1.90;;
4074;SDS011;2052;53.522;9.806;2023-03-14T12:02:20;4.30;;;1.50;;
4074;SDS011;2052;53.522;9.806;2023-03-14T12:04:51;4.13;;;2.43;;
4074;SDS011;2052;53.522;9.806;2023-03-14T12:07:42;5.50;;;1.50;;
4074;SDS011;2052;53.522;9.806;2023-03-14T12:10:21;4.43;;;1.40;;
4074;SDS011;2052;53.522;9.806;2023-03-14T12:12:49;4.53;;;1.47;;
4074;SDS011;2052;53.522;9.806;2023-03-14T12:15:18;3.93;;;1.20;;
4074;SDS011;2052;53.522;9.806;2023-03-14T12:17:45;10.63;;;3.93;;
4074;SDS011;2052;53.522;9.806;2023-03-14T12:20:15;9.83;;;2.40;;
4074;SDS011;2052;53.522;9.806;2023-03-14T12:22:45;5.93;;;1.47;;
4074;SDS011;2052;53.522;9.806;2023-03-14T12:25:15;11.43;;;3.23;;
4074;SDS011;2052;53.522;9.806;2023-03-14T12:27:45;9.40;;;2.10;;
4074;SDS011;2052;53.522;9.806;2023-03-14T12:30:23;5.63;;;1.90;;
4074;SDS011;2052;53.522;9.806;2023-03-14T12:33:11;11.53;;;3.10;;
4074;SDS011;2052;53.522;9.806;2023-03-14T12:35:48;11.03;;;2.50;;
4074;SDS011;2052;53.522;9.806;2023-03-14T12:38:15;11.80;;;2.17;;
4074;SDS011;2052;53.522;9.806;2023-03-14T12:40:47;9.90;;;2.70;;
4074;SDS011;2052;53.522;9.806;2023-03-14T12:43:24;5.77;;;1.97;;
4074;SDS011;2052;53.522;9.806;2023-03-14T12:46:09;10.53;;;2.90;;
4074;SDS011;2052;53.522;9.806;2023-03-14T12:48:43;8.93;;;3.17;;
4074;SDS011;2052;53.522;9.806;2023-03-14T12:51:14;9.07;;;2.00;;
4074;SDS011;2052;53.522;9.806;2023-03-14T12:54:00;11.70;;;3.10;;
4074;SDS011;2052;53.522;9.806;2023-03-14T12:56:46;13.30;;;2.80;;
4074;SDS011;2052;53.522;9.806;2023-03-14T12:59:29;14.63;;;3.20;;
4074;SDS011;2052;53.522;9.806;2023-03-14T13:02:00;8.63;;;2.80;;
4074;SDS011;2052;53.522;9.806;2023-03-14T13:04:37;9.00;;;2.60;;
4074;SDS011;2052;53.522;9.806;2023-03-14T13:07:10;16.40;;;3.27;;
4074;SDS011;2052;53.522;9.806;2023-03-14T13:12:34;18.30;;;3.93;;
4074;SDS011;2052;53.522;9.806;2023-03-14T13:15:11;14.30;;;2.27;;
4074;SDS011;2052;53.522;9.806;2023-03-14T13:17:43;9.70;;;2.30;;
4074;SDS011;2052;53.522;9.806;2023-03-14T13:20:12;11.30;;;2.60;;
4074;SDS011;2052;53.522;9.806;2023-03-14T13:22:45;8.63;;;2.20;;
4074;SDS011;2052;53.522;9.806;2023-03-14T13:25:13;7.27;;;2.13;;
4074;SDS011;2052;53.522;9.806;2023-03-14T13:27:41;6.77;;;2.10;;
4074;SDS011;2052;53.522;9.806;2023-03-14T13:30:22;11.63;;;2.63;;
4074;SDS011;2052;53.522;9.806;2023-03-14T13:32:53;6.60;;;2.07;;
4074;SDS011;2052;53.522;9.806;2023-03-14T13:35:22;11.67;;;2.73;;
4074;SDS011;2052;53.522;9.806;2023-03-14T13:37:54;10.60;;;2.50;;
4074;SDS011;2052;53.522;9.806;2023-03-14T13:40:24;10.43;;;2.50;;
4074;SDS011;2052;53.522;9.806;2023-03-14T13:42:59;5.43;;;1.93;;
4074;SDS011;2052;53.522;9.806;2023-03-14T13:45:29;7.90;;;3.07;;
4074;SDS011;2052;53.522;9.806;2023-03-14T13:47:57;6.37;;;2.23;;
4074;SDS011;2052;53.522;9.806;2023-03-14T13:50:24;12.17;;;2.13;;
4074;SDS011;2052;53.522;9.806;2023-03-14T13:52:55;12.17;;;4.37;;
4074;SDS011;2052;53.522;9.806;2023-03-14T13:55:23;7.07;;;2.53;;
4074;SDS011;2052;53.522;9.806;2023-03-14T13:57:50;11.13;;;2.73;;
4074;SDS011;2052;53.522;9.806;2023-03-14T14:00:20;7.63;;;3.80;;
4074;SDS011;2052;53.522;9.806;2023-03-14T14:02:51;10.00;;;3.10;;
4074;SDS011;2052;53.522;9.806;2023-03-14T14:05:21;9.37;;;3.40;;
4074;SDS011;2052;53.522;9.806;2023-03-14T14:07:48;5.13;;;2.40;;
4074;SDS011;2052;53.522;9.806;2023-03-14T14:10:15;14.50;;;3.60;;
4074;SDS011;2052;53.522;9.806;2023-03-14T14:12:42;8.13;;;2.33;;
4074;SDS011;2052;53.522;9.806;2023-03-14T14:15:12;14.60;;;3.07;;
4074;SDS011;2052;53.522;9.806;2023-03-14T14:17:41;5.63;;;2.43;;
4074;SDS011;2052;53.522;9.806;2023-03-14T14:20:13;6.23;;;2.87;;
4074;SDS011;2052;53.522;9.806;2023-03-14T14:22:48;14.93;;;2.70;;
4074;SDS011;2052;53.522;9.806;2023-03-14T14:25:14;11.97;;;3.10;;
4074;SDS011;2052;53.522;9.806;2023-03-14T14:27:42;4.20;;;1.80;;
4074;SDS011;2052;53.522;9.806;2023-03-14T14:30:25;10.83;;;2.47;;
4074;SDS011;2052;53.522;9.806;2023-03-14T14:32:55;6.77;;;2.50;;
4074;SDS011;2052;53.522;9.806;2023-03-14T14:35:37;10.00;;;2.30;;
4074;SDS011;2052;53.522;9.806;2023-03-14T14:38:11;10.97;;;3.80;;
4074;SDS011;2052;53.522;9.806;2023-03-14T14:40:43;4.60;;;2.10;;
4074;SDS011;2052;53.522;9.806;2023-03-14T14:43:10;11.53;;;2.10;;
4074;SDS011;2052;53.522;9.806;2023-03-14T14:45:38;5.67;;;2.13;;
4074;SDS011;2052;53.522;9.806;2023-03-14T14:48:05;8.00;;;2.97;;
4074;SDS011;2052;53.522;9.806;2023-03-14T14:50:37;5.10;;;1.57;;
4074;SDS011;2052;53.522;9.806;2023-03-14T14:53:19;9.17;;;2.10;;
4074;SDS011;2052;53.522;9.806;2023-03-14T14:55:50;7.90;;;2.17;;
4074;SDS011;2052;53.522;9.806;2023-03-14T14:58:18;5.90;;;1.87;;
4074;SDS011;2052;53.522;9.806;2023-03-14T15:00:52;7.50;;;2.00;;
4074;SDS011;2052;53.522;9.806;2023-03-14T15:03:21;8.67;;;2.53;;
4074;SDS011;2052;53.522;9.806;2023-03-14T15:05:48;6.17;;;1.70;;
4074;SDS011;2052;53.522;9.806;2023-03-14T15:08:15;7.83;;;2.30;;
4074;SDS011;2052;53.522;9.806;2023-03-14T15:10:43;2.87;;;2.10;;
4074;SDS011;2052;53.522;9.806;2023-03-14T15:13:10;15.73;;;3.23;;
4074;SDS011;2052;53.522;9.806;2023-03-14T15:15:37;14.57;;;2.90;;
4074;SDS011;2052;53.522;9.806;2023-03-14T15:18:08;9.40;;;2.53;;
4074;SDS011;2052;53.522;9.806;2023-03-14T15:20:37;8.00;;;2.27;;
4074;SDS011;2052;53.522;9.806;2023-03-14T15:23:04;7.23;;;2.53;;
4074;SDS011;2052;53.522;9.806;2023-03-14T15:25:36;10.87;;;2.43;;
4074;SDS011;2052;53.522;9.806;2023-03-14T15:28:08;7.77;;;2.47;;